Time;durP1;ratioP1;P1;durP2;ratioP2;P2;SDS_P1;SDS_P2;PMS_P1;PMS_P2;Temp;Humidity;BMP_temperature;BMP_pressure;BME280_temperature;BME280_humidity;BME280_pressure;Samples;Min_cycle;Max_cycle;Signal;HPM_P1;HPM_P2
2022/07/06 00:01:28;;;;;;;;;3.00;3.00;;;;;20.75;43.70;102223.44;5032005;28;45125;-64
2022/07/06 00:03:53;;;;;;;;;2.25;2.25;;;;;20.75;43.56;102223.44;5030284;28;46545;-64
2022/07/06 00:06:19;;;;;;;;;1.75;1.75;;;;;20.79;43.76;102231.34;5029175;28;45319;-64
2022/07/06 00:08:44;;;;;;;;;3.00;3.00;;;;;20.80;43.36;102238.56;5039301;28;45317;-64
2022/07/06 00:11:10;;;;;;;;;4.00;2.50;;;;;20.76;43.68;102230.66;5020367;28;45366;-63
2022/07/06 00:13:36;;;;;;;;;3.00;3.00;;;;;20.75;44.05;102234.31;5033081;28;45427;-64
2022/07/06 00:16:01;;;;;;;;;2.00;2.00;;;;;20.69;44.09;102217.38;5029208;28;45445;-64
2022/07/06 00:18:26;;;;;;;;;4.50;3.75;;;;;20.77;43.82;102227.00;5023976;28;45940;-64
2022/07/06 00:20:52;;;;;;;;;2.25;1.00;;;;;20.72;43.70;102229.94;5025885;28;45390;-64
2022/07/06 00:23:17;;;;;;;;;2.00;2.00;;;;;20.64;44.33;102232.16;5033704;28;45470;-64
2022/07/06 00:25:43;;;;;;;;;3.00;3.00;;;;;20.58;44.38;102227.00;5020679;28;45300;-64
2022/07/06 00:28:08;;;;;;;;;3.50;2.25;;;;;20.57;44.69;102223.44;5022078;28;45873;-64
2022/07/06 00:30:33;;;;;;;;;4.00;3.00;;;;;20.57;44.64;102220.72;5030295;28;45484;-64
2022/07/06 00:32:59;;;;;;;;;3.50;3.50;;;;;20.55;44.89;102220.78;5035419;28;47663;-64
2022/07/06 00:35:25;;;;;;;;;3.50;2.50;;;;;20.58;44.53;102225.19;5032994;28;45443;-64
2022/07/06 00:37:50;;;;;;;;;3.00;3.00;;;;;20.58;44.63;102225.19;5026441;28;45318;-64
2022/07/06 00:40:16;;;;;;;;;3.25;2.00;;;;;20.61;44.79;102233.16;5035963;28;45512;-64
2022/07/06 00:42:43;;;;;;;;;5.50;3.00;;;;;20.59;45.03;102221.50;5034583;28;46308;-64
2022/07/06 00:45:10;;;;;;;;;2.75;2.00;;;;;20.54;44.69;102221.72;5036795;28;45547;-64
2022/07/06 00:47:35;;;;;;;;;2.00;1.00;;;;;20.56;44.98;102218.94;5025326;28;45411;-64
2022/07/06 00:53:05;;;;;;;;;5.25;3.00;;;;;20.52;44.93;102220.06;5020371;28;47108;-64
2022/07/06 00:55:34;;;;;;;;;3.00;3.00;;;;;20.48;45.12;102223.88;5033055;28;45363;-64
2022/07/06 00:58:02;;;;;;;;;3.75;3.75;;;;;20.39;44.83;102213.50;5025219;28;45706;-64
2022/07/06 01:00:29;;;;;;;;;5.00;3.50;;;;;20.38;44.93;102214.47;5039626;28;46436;-64
2022/07/06 01:02:55;;;;;;;;;3.75;3.75;;;;;20.30;45.34;102218.44;5029367;28;45395;-64
2022/07/06 01:05:21;;;;;;;;;3.75;3.00;;;;;20.30;45.44;102225.72;5025320;28;45276;-64
2022/07/06 01:07:48;;;;;;;;;3.25;3.25;;;;;20.29;45.47;102224.81;5032874;28;45299;-64
2022/07/06 01:10:16;;;;;;;;;4.00;4.00;;;;;20.30;45.56;102223.00;5033332;28;45379;-64
2022/07/06 01:12:44;;;;;;;;;3.50;3.50;;;;;20.31;45.44;102224.72;5027209;28;45299;-64
2022/07/06 01:15:18;;;;;;;;;3.50;3.50;;;;;20.29;45.62;102218.50;5033205;28;45283;-64
2022/07/06 01:17:44;;;;;;;;;6.00;5.00;;;;;20.27;46.05;102229.44;5020233;28;45392;-64
2022/07/06 01:20:14;;;;;;;;;3.00;3.00;;;;;20.23;45.96;102222.41;5021006;28;45599;-64
2022/07/06 01:22:40;;;;;;;;;4.00;4.00;;;;;20.26;45.74;102221.38;5029731;28;45335;-63
2022/07/06 01:25:07;;;;;;;;;3.75;3.75;;;;;20.24;45.85;102223.28;5034904;28;45470;-64
2022/07/06 01:27:36;;;;;;;;;4.00;3.00;;;;;20.21;45.98;102229.72;5024897;28;45388;-64
2022/07/06 01:30:02;;;;;;;;;5.50;4.00;;;;;20.19;46.19;102228.94;5029632;28;45522;-64
2022/07/06 01:32:27;;;;;;;;;3.00;3.00;;;;;20.16;46.36;102231.78;5022820;28;45398;-63
2022/07/06 01:34:53;;;;;;;;;3.25;3.00;;;;;20.13;46.27;102231.94;5024259;28;45372;-64
2022/07/06 01:37:18;;;;;;;;;5.00;5.00;;;;;20.09;46.26;102225.78;5022205;28;45303;-63
2022/07/06 01:39:43;;;;;;;;;4.50;4.50;;;;;19.97;46.64;102216.44;5025848;28;53600;-64
2022/07/06 01:42:08;;;;;;;;;4.00;4.00;;;;;19.95;46.65;102229.19;5027957;28;45360;-64
2022/07/06 01:44:34;;;;;;;;;3.50;3.50;;;;;19.94;46.83;102221.13;5021656;28;45343;-63
2022/07/06 01:46:59;;;;;;;;;4.75;3.50;;;;;19.91;46.70;102211.34;5027311;28;45426;-64
2022/07/06 01:49:24;;;;;;;;;2.50;2.50;;;;;19.96;46.90;102225.53;5024708;28;55438;-64
2022/07/06 01:51:50;;;;;;;;;4.00;4.00;;;;;20.01;47.00;102228.00;5033429;28;45486;-63
2022/07/06 01:54:15;;;;;;;;;7.00;5.25;;;;;20.01;46.92;102217.16;5037141;28;46603;-63
2022/07/06 01:56:40;;;;;;;;;3.50;3.50;;;;;19.99;46.71;102225.34;5031370;28;45374;-63
2022/07/06 01:59:06;;;;;;;;;4.50;4.50;;;;;19.93;46.83;102222.06;5025196;28;45497;-64
2022/07/06 02:01:31;;;;;;;;;3.00;3.00;;;;;19.86;47.02;102224.19;5034100;28;49962;-63
2022/07/06 02:03:56;;;;;;;;;4.00;4.00;;;;;19.84;47.01;102227.94;5036142;28;45319;-64
2022/07/06 02:06:22;;;;;;;;;3.50;3.50;;;;;19.80;47.02;102229.94;5031497;28;45427;-63
2022/07/06 02:08:48;;;;;;;;;5.00;4.00;;;;;19.78;47.14;102221.88;5025334;28;45600;-64
2022/07/06 02:11:13;;;;;;;;;3.50;2.25;;;;;19.72;46.94;102203.16;5023828;28;45227;-64
2022/07/06 02:13:39;;;;;;;;;6.50;4.50;;;;;19.85;46.94;102218.88;5036077;28;45454;-64
2022/07/06 02:16:04;;;;;;;;;3.75;3.75;;;;;19.82;47.19;102222.59;5038020;28;45332;-63
2022/07/06 02:18:29;;;;;;;;;3.00;3.00;;;;;19.85;47.16;102217.03;5030493;28;45634;-64
2022/07/06 02:20:55;;;;;;;;;3.00;3.00;;;;;19.86;47.26;102217.91;5039708;28;45228;-63
2022/07/06 02:23:20;;;;;;;;;4.00;4.00;;;;;19.82;47.11;102209.06;5024717;28;45209;-64
2022/07/06 02:25:46;;;;;;;;;2.00;2.00;;;;;19.85;47.10;102216.16;5022858;28;45295;-63
2022/07/06 02:28:11;;;;;;;;;1.00;1.00;;;;;19.90;47.20;102211.41;5030385;28;45543;-63
2022/07/06 02:30:36;;;;;;;;;3.00;3.00;;;;;19.89;47.21;102212.34;5031467;28;45353;-63
2022/07/06 02:33:02;;;;;;;;;3.25;3.25;;;;;19.91;47.19;102203.19;5022663;28;47845;-64
2022/07/06 02:35:28;;;;;;;;;5.00;4.00;;;;;19.91;47.32;102202.28;5022449;28;45276;-63
2022/07/06 02:37:53;;;;;;;;;3.50;3.50;;;;;19.87;47.50;102206.13;5025332;28;45494;-63
2022/07/06 02:40:18;;;;;;;;;4.00;4.00;;;;;19.88;47.29;102202.44;5022323;28;46332;-63
2022/07/06 02:42:44;;;;;;;;;4.00;3.50;;;;;19.91;47.45;102196.88;5026600;28;45399;-64
2022/07/06 02:45:10;;;;;;;;;3.00;3.00;;;;;19.95;47.29;102203.94;5033722;28;47521;-63
2022/07/06 02:47:35;;;;;;;;;4.75;3.50;;;;;19.93;47.44;102200.38;5023303;28;45492;-64
2022/07/06 02:50:01;;;;;;;;;3.75;3.75;;;;;19.94;47.35;102203.03;5025364;28;45397;-64
2022/07/06 02:52:26;;;;;;;;;5.00;5.00;;;;;19.96;47.43;102211.97;5029776;28;45254;-63
2022/07/06 02:54:51;;;;;;;;;4.50;4.50;;;;;19.88;47.41;102203.34;5022414;28;45243;-63
2022/07/06 02:57:17;;;;;;;;;7.00;5.00;;;;;19.93;47.28;102214.84;5022779;28;45382;-63
2022/07/06 02:59:43;;;;;;;;;4.75;4.75;;;;;19.85;47.12;102213.47;5036443;28;45450;-64
2022/07/06 03:02:09;;;;;;;;;5.00;5.00;;;;;19.85;47.62;102217.03;5035240;28;45422;-63
2022/07/06 03:04:34;;;;;;;;;4.75;4.50;;;;;19.76;47.31;102210.22;5032747;28;45158;-64
2022/07/06 03:07:00;;;;;;;;;4.25;4.00;;;;;19.85;47.39;102229.72;5035354;28;45293;-63
2022/07/06 03:09:26;;;;;;;;;6.00;5.00;;;;;19.78;47.55;102215.59;5034606;28;46180;-63
2022/07/06 03:11:51;;;;;;;;;3.75;3.75;;;;;19.80;47.42;102232.63;5034154;28;45683;-64
2022/07/06 03:14:16;;;;;;;;;6.25;5.00;;;;;19.80;47.49;102230.78;5034391;28;45498;-64
2022/07/06 03:16:42;;;;;;;;;4.00;4.00;;;;;19.80;47.59;102227.22;5021630;28;45411;-64
2022/07/06 03:19:07;;;;;;;;;3.75;3.75;;;;;19.82;47.59;102232.56;5029466;28;45976;-63
2022/07/06 03:21:33;;;;;;;;;4.75;4.75;;;;;19.75;47.43;102230.13;5023944;28;45399;-64
2022/07/06 03:23:58;;;;;;;;;5.25;4.25;;;;;19.69;47.45;102232.22;5021751;28;45524;-64
2022/07/06 03:26:23;;;;;;;;;5.00;3.00;;;;;19.63;47.79;102228.84;5021503;28;45411;-63
2022/07/06 03:28:49;;;;;;;;;4.00;4.00;;;;;19.65;47.87;102226.06;5025246;28;46002;-64
2022/07/06 03:31:14;;;;;;;;;5.25;4.25;;;;;19.64;48.03;102221.59;5020801;28;45647;-63
2022/07/06 03:33:39;;;;;;;;;7.75;6.00;;;;;19.66;47.87;102225.09;5021749;28;45371;-63
2022/07/06 03:36:05;;;;;;;;;4.00;4.00;;;;;19.63;48.06;102228.84;5032238;28;51582;-63
2022/07/06 03:38:31;;;;;;;;;4.50;3.25;;;;;19.58;48.21;102235.44;5028590;28;45741;-64
2022/07/06 03:40:56;;;;;;;;;4.50;4.00;;;;;19.58;48.33;102230.91;5036637;28;45526;-64
2022/07/06 03:43:21;;;;;;;;;5.50;4.00;;;;;19.59;48.43;102243.47;5031612;28;45293;-63
2022/07/06 03:45:47;;;;;;;;;5.50;4.25;;;;;19.61;48.16;102241.59;5026864;28;46717;-63
2022/07/06 03:48:12;;;;;;;;;4.00;4.00;;;;;19.58;48.11;102230.03;5020184;28;45484;-63
2022/07/06 03:50:37;;;;;;;;;3.25;3.25;;;;;19.62;48.49;102237.91;5036275;28;45267;-64
2022/07/06 03:53:03;;;;;;;;;4.00;4.00;;;;;19.58;48.19;102238.16;5021038;28;45390;-63
2022/07/06 03:55:28;;;;;;;;;5.50;4.25;;;;;19.61;48.16;102243.41;5021020;28;45300;-64
2022/07/06 03:57:54;;;;;;;;;4.25;4.25;;;;;19.61;48.16;102244.31;5034969;28;45380;-63
2022/07/06 04:00:19;;;;;;;;;3.50;3.50;;;;;19.56;48.11;102235.53;5026359;28;45320;-63
2022/07/06 04:02:45;;;;;;;;;2.00;2.00;;;;;19.57;47.89;102239.97;5027634;28;45429;-64
2022/07/06 04:05:10;;;;;;;;;5.00;4.75;;;;;19.59;48.14;102245.31;5028392;28;45233;-63
2022/07/06 04:07:35;;;;;;;;;4.00;4.00;;;;;19.52;48.38;102233.88;5041698;28;46228;-63
2022/07/06 04:10:01;;;;;;;;;4.75;4.75;;;;;19.54;48.47;102245.53;5029699;28;45305;-63
2022/07/06 04:12:26;;;;;;;;;4.00;3.25;;;;;19.57;47.96;102249.94;5031098;28;45511;-64
2022/07/06 04:14:51;;;;;;;;;5.75;4.00;;;;;19.56;48.04;102249.06;5026098;28;53305;-63
2022/07/06 04:20:00;;;;;;;;;4.25;3.25;;;;;19.50;48.51;102249.34;5019996;28;45308;-63
2022/07/06 04:22:26;;;;;;;;;4.00;3.25;;;;;19.51;48.63;102251.09;5020408;28;50019;-63
2022/07/06 04:24:51;;;;;;;;;7.75;5.25;;;;;19.51;48.23;102248.41;5037879;28;45379;-63
2022/07/06 04:27:16;;;;;;;;;5.50;4.00;;;;;19.48;48.40;102248.53;5042850;28;48888;-63
2022/07/06 04:29:42;;;;;;;;;0.50;0.50;;;;;19.43;48.53;102247.88;5030821;28;53975;-63
2022/07/06 04:32:07;;;;;;;;;5.75;4.75;;;;;19.39;48.73;102251.66;5028621;28;55346;-63
2022/07/06 04:34:33;;;;;;;;;3.50;3.50;;;;;19.39;48.65;102254.34;5049997;28;45452;-63
2022/07/06 04:36:58;;;;;;;;;4.75;4.25;;;;;19.34;48.74;102246.44;5027483;28;45432;-63
2022/07/06 04:39:24;;;;;;;;;6.50;6.00;;;;;19.32;48.90;102242.94;5029452;28;45471;-63
2022/07/06 04:41:49;;;;;;;;;5.00;5.00;;;;;19.39;48.87;102251.66;5033011;28;45398;-64
2022/07/06 04:44:14;;;;;;;;;5.00;5.00;;;;;19.38;48.98;102242.66;5029839;28;58348;-64
2022/07/06 04:46:39;;;;;;;;;5.25;4.75;;;;;19.38;49.08;102237.25;5025527;28;46681;-64
2022/07/06 04:49:05;;;;;;;;;6.25;6.00;;;;;19.37;48.45;102237.31;5020195;28;45388;-63
2022/07/06 04:51:30;;;;;;;;;5.25;4.25;;;;;19.39;48.59;102247.09;5026818;28;45395;-63
2022/07/06 04:53:55;;;;;;;;;7.75;7.00;;;;;19.39;48.74;102251.66;5032265;28;52922;-64
2022/07/06 04:56:21;;;;;;;;;4.50;4.50;;;;;19.36;48.76;102249.06;5031846;28;46016;-63
2022/07/06 04:58:46;;;;;;;;;4.00;4.00;;;;;19.38;49.09;102250.78;5022956;28;45331;-63
2022/07/06 05:01:11;;;;;;;;;6.50;3.50;;;;;19.37;49.04;102253.56;5025950;28;45416;-63
2022/07/06 05:03:40;;;;;;;;;5.25;5.25;;;;;19.33;48.66;102250.13;5023032;28;45708;-64
2022/07/06 05:06:06;;;;;;;;;5.00;3.50;;;;;19.28;48.82;102243.13;5022173;28;45316;-63
2022/07/06 05:08:32;;;;;;;;;5.00;4.00;;;;;19.32;49.34;102251.06;5026312;28;45371;-63
2022/07/06 05:10:58;;;;;;;;;3.50;3.50;;;;;19.35;48.81;102255.47;5020884;28;45486;-63
2022/07/06 05:13:23;;;;;;;;;4.00;4.00;;;;;19.37;48.35;102258.97;5037400;28;45468;-63
2022/07/06 05:15:49;;;;;;;;;4.00;4.00;;;;;19.37;48.59;102248.13;5029195;28;45842;-63
2022/07/06 05:18:14;;;;;;;;;5.25;4.00;;;;;19.38;48.74;102249.91;5032129;28;45213;-63
2022/07/06 05:20:39;;;;;;;;;5.50;4.00;;;;;19.36;49.05;102249.97;5024939;28;45356;-63
2022/07/06 05:23:05;;;;;;;;;6.00;5.00;;;;;19.41;48.99;102252.44;5038588;28;45429;-64
2022/07/06 05:25:31;;;;;;;;;4.75;4.75;;;;;19.42;49.22;102249.69;5037051;28;52713;-63
2022/07/06 05:27:56;;;;;;;;;4.00;3.00;;;;;19.47;49.09;102259.44;5039205;28;45298;-63
2022/07/06 05:30:22;;;;;;;;;4.25;4.25;;;;;19.45;49.26;102259.50;5038053;28;45422;-63
2022/07/06 05:32:47;;;;;;;;;3.75;3.75;;;;;19.43;49.03;102246.03;5029969;28;45622;-63
2022/07/06 05:35:12;;;;;;;;;6.50;6.00;;;;;19.45;49.17;102245.97;5027996;28;50378;-63
2022/07/06 05:37:37;;;;;;;;;7.25;5.25;;;;;19.44;48.68;102244.19;5032425;28;45465;-63
2022/07/06 05:40:03;;;;;;;;;5.25;4.00;;;;;19.42;48.77;102246.97;5039399;28;45432;-63
2022/07/06 05:42:29;;;;;;;;;7.75;5.00;;;;;19.38;49.46;102236.38;5028488;28;45600;-76
2022/07/06 05:44:56;;;;;;;;;5.00;5.00;;;;;19.44;48.46;102253.22;5022458;28;45992;-82
2022/07/06 05:50:12;;;;;;;;;5.00;5.00;;;;;19.33;48.17;102250.13;5028434;28;45352;-79
2022/07/06 05:52:42;;;;;;;;;4.00;4.00;;;;;19.43;48.66;102264.13;5031825;28;45406;-68
2022/07/06 05:55:09;;;;;;;;;4.00;4.00;;;;;19.38;48.37;102256.19;5027849;28;47032;-68
2022/07/06 05:57:34;;;;;;;;;4.00;4.00;;;;;19.43;48.43;102275.81;5042644;28;45440;-69
2022/07/06 06:00:00;;;;;;;;;4.00;4.00;;;;;19.45;48.28;102275.75;5040868;28;45441;-69
2022/07/06 06:02:25;;;;;;;;;5.00;4.00;;;;;19.52;48.46;102274.50;5030019;28;45311;-69
2022/07/06 06:04:50;;;;;;;;;4.75;4.75;;;;;19.55;48.14;102277.09;5027438;28;45351;-68
2022/07/06 06:07:15;;;;;;;;;3.50;3.50;;;;;19.51;47.25;102282.69;5031127;28;45486;-68
2022/07/06 06:09:41;;;;;;;;;3.75;3.75;;;;;19.44;47.09;102273.97;5032898;28;45304;-68
2022/07/06 06:12:06;;;;;;;;;3.00;3.00;;;;;19.47;47.32;102279.25;5033146;28;45477;-68
2022/07/06 06:14:32;;;;;;;;;5.75;3.00;;;;;19.53;47.24;102286.22;5022557;28;45287;-68
2022/07/06 06:16:58;;;;;;;;;4.00;3.75;;;;;19.54;46.63;102272.59;5029626;28;45169;-68
2022/07/06 06:19:23;;;;;;;;;3.75;3.75;;;;;19.46;46.32;102272.06;5028440;28;45648;-68
2022/07/06 06:21:49;;;;;;;;;3.00;3.00;;;;;19.49;47.05;102274.66;5026791;28;52912;-68
2022/07/06 06:24:14;;;;;;;;;6.00;6.00;;;;;19.51;46.61;102274.59;5022425;28;45250;-68
2022/07/06 06:26:39;;;;;;;;;5.50;5.50;;;;;19.50;46.72;102275.56;5032375;28;45357;-68
2022/07/06 06:29:05;;;;;;;;;5.75;5.75;;;;;19.56;46.67;102283.38;5036311;28;45170;-68
2022/07/06 06:31:30;;;;;;;;;3.25;3.25;;;;;19.60;47.03;102279.59;5035742;28;45213;-68
2022/07/06 06:33:56;;;;;;;;;1.75;1.75;;;;;19.60;46.87;102272.34;5028432;28;45430;-79
2022/07/06 06:36:21;;;;;;;;;6.00;6.00;;;;;19.61;46.79;102265.06;5029395;28;45417;-82
2022/07/06 06:38:47;;;;;;;;;6.00;5.75;;;;;19.48;46.97;102239.50;5030174;28;45367;-72
2022/07/06 06:41:13;;;;;;;;;3.00;2.50;;;;;19.66;47.13;102271.16;5028045;28;45418;-69
2022/07/06 06:43:38;;;;;;;;;4.75;4.00;;;;;19.71;46.99;102282.69;5034455;28;47740;-69
2022/07/06 06:46:03;;;;;;;;;4.00;4.00;;;;;19.73;46.86;102282.59;5026096;28;45413;-70
2022/07/06 06:48:29;;;;;;;;;5.50;4.75;;;;;19.73;46.60;102283.50;5032306;28;46737;-68
2022/07/06 06:50:54;;;;;;;;;5.75;5.75;;;;;19.70;46.58;102275.50;5030315;28;45601;-69
2022/07/06 06:53:19;;;;;;;;;4.00;4.00;;;;;19.79;46.54;102287.75;5022999;28;50893;-70
2022/07/06 06:55:45;;;;;;;;;5.75;4.75;;;;;19.80;46.33;102282.28;5031928;28;45675;-71
2022/07/06 06:58:10;;;;;;;;;4.75;4.75;;;;;19.87;45.77;102295.53;5029893;28;45461;-70
2022/07/06 07:00:36;;;;;;;;;5.00;5.00;;;;;19.82;45.75;102287.63;5036002;28;45308;-70
2022/07/06 07:03:01;;;;;;;;;5.25;5.25;;;;;19.82;45.93;102287.63;5039401;28;47260;-70
2022/07/06 07:05:26;;;;;;;;;4.50;4.50;;;;;19.80;46.23;102290.41;5029014;28;49667;-70
2022/07/06 07:07:51;;;;;;;;;5.25;5.00;;;;;19.86;46.49;102289.22;5039895;28;45660;-70
2022/07/06 07:10:17;;;;;;;;;4.50;4.50;;;;;19.88;45.86;102281.94;5037575;28;45693;-71
2022/07/06 07:12:46;;;;;;;;;5.75;5.75;;;;;19.93;45.83;102296.13;5039139;28;45438;-70
2022/07/06 07:15:13;;;;;;;;;5.00;5.00;;;;;19.93;45.64;102290.72;5032280;28;45541;-70
2022/07/06 07:17:39;;;;;;;;;5.75;5.75;;;;;19.93;45.81;102289.81;5029217;28;45476;-70
2022/07/06 07:20:05;;;;;;;;;5.25;5.25;;;;;20.03;45.85;102301.09;5024203;28;45470;-70
2022/07/06 07:22:31;;;;;;;;;6.00;4.75;;;;;20.03;45.57;102295.69;5031179;28;46148;-70
2022/07/06 07:24:56;;;;;;;;;5.00;4.00;;;;;20.09;45.63;102306.25;5025664;28;45517;-71
2022/07/06 07:27:21;;;;;;;;;6.25;5.00;;;;;20.11;45.89;102293.50;5032575;28;45378;-70
2022/07/06 07:29:47;;;;;;;;;4.50;3.75;;;;;20.17;45.56;102293.19;5023808;28;45680;-72
2022/07/06 07:32:12;;;;;;;;;4.50;4.50;;;;;20.18;45.36;102293.13;5019790;28;45400;-71
2022/07/06 07:34:37;;;;;;;;;5.00;4.00;;;;;20.30;45.70;102296.22;5032297;28;45288;-72
2022/07/06 07:37:03;;;;;;;;;4.75;4.00;;;;;20.26;45.35;102279.19;5032037;28;45588;-71
2022/07/06 07:39:28;;;;;;;;;4.50;4.25;;;;;20.36;45.67;102294.06;5029446;28;45481;-73
2022/07/06 07:42:52;;;;;;;;;4.25;4.25;;;;;20.23;45.75;102263.09;5030296;28;45632;-76
2022/07/06 07:58:59;;;;;;;;;5.00;5.00;;;;;20.54;44.85;102259.72;4908563;28;45697;-69
2022/07/06 08:59:03;;;;;;;;;5.25;4.75;;;;;21.99;42.69;102289.25;5996902;23;46468;-71
2022/07/06 09:02:00;;;;;;;;;7.50;7.50;;;;;21.74;43.06;102222.66;4906858;28;45514;-72
2022/07/06 09:04:28;;;;;;;;;5.75;5.75;;;;;21.82;42.86;102223.13;5002768;28;47232;-75
2022/07/06 09:06:54;;;;;;;;;5.75;5.75;;;;;21.94;43.23;102223.38;5007270;28;45446;-72
2022/07/06 09:09:22;;;;;;;;;5.00;5.00;;;;;21.87;42.66;102208.38;5001207;28;45405;-75
2022/07/06 09:11:49;;;;;;;;;6.25;4.75;;;;;22.10;42.31;102243.31;4984004;28;45464;-74
2022/07/06 09:14:15;;;;;;;;;5.00;5.00;;;;;21.92;42.98;102208.97;5001493;28;47451;-75
2022/07/06 09:16:42;;;;;;;;;6.50;5.75;;;;;21.97;42.68;102207.78;5000589;28;45311;-74
2022/07/06 09:19:10;;;;;;;;;4.75;4.75;;;;;22.27;42.18;102253.19;4999168;28;45475;-75
2022/07/06 09:21:36;;;;;;;;;6.50;6.00;;;;;22.07;41.95;102216.28;4993699;28;45554;-74
2022/07/06 09:24:06;;;;;;;;;6.25;4.25;;;;;22.41;42.04;102274.19;5013883;28;47121;-74
2022/07/06 09:26:33;;;;;;;;;4.75;4.50;;;;;22.25;42.15;102237.91;4999445;28;45316;-74
2022/07/06 09:28:59;;;;;;;;;6.00;6.00;;;;;22.19;41.50;102211.97;5013030;28;45949;-74
2022/07/06 09:31:24;;;;;;;;;4.25;4.25;;;;;22.21;42.70;102210.91;5000300;28;45381;-72
2022/07/06 09:34:06;;;;;;;;;8.00;5.50;;;;;22.23;42.75;102204.50;5010887;28;46046;-74
2022/07/06 09:36:44;;;;;;;;;5.50;4.50;;;;;22.48;42.15;102242.91;4975249;28;45473;-74
2022/07/06 09:39:31;;;;;;;;;3.00;3.00;;;;;22.60;41.35;102263.09;4982508;28;45420;-74
2022/07/06 09:42:03;;;;;;;;;4.00;4.00;;;;;22.61;40.87;102255.81;4981711;28;45373;-74
2022/07/06 09:44:41;;;;;;;;;4.75;4.75;;;;;22.31;40.97;102199.53;5017561;28;45533;-74
2022/07/06 09:47:09;;;;;;;;;3.25;3.25;;;;;22.32;40.96;102188.56;4982416;28;45591;-74
2022/07/06 09:49:38;;;;;;;;;2.25;2.25;;;;;22.49;40.61;102219.34;5006420;28;46550;-74
2022/07/06 09:52:06;;;;;;;;;3.75;3.75;;;;;22.58;40.58;102241.41;5013169;28;45556;-74
2022/07/06 09:54:34;;;;;;;;;4.00;4.00;;;;;22.73;40.50;102260.53;4979747;28;47984;-74
2022/07/06 09:57:00;;;;;;;;;2.50;2.50;;;;;22.59;40.60;102225.97;5004767;28;45453;-74
2022/07/06 09:59:32;;;;;;;;;5.50;3.75;;;;;22.66;39.58;102249.13;4971171;28;45532;-74
2022/07/06 10:02:00;;;;;;;;;4.25;4.00;;;;;22.77;40.76;102267.56;4969413;28;45499;-74
2022/07/06 10:04:26;;;;;;;;;3.00;3.00;;;;;22.61;40.88;102231.31;4980893;28;45607;-74
2022/07/06 10:06:53;;;;;;;;;4.00;4.00;;;;;22.83;40.24;102259.00;4975390;28;45602;-74
2022/07/06 10:09:21;;;;;;;;;5.00;5.00;;;;;22.61;40.20;102212.28;4989348;28;45327;-74
2022/07/06 10:11:49;;;;;;;;;4.00;4.00;;;;;22.92;40.34;102261.16;4960094;28;45588;-74
2022/07/06 10:14:23;;;;;;;;;4.00;4.00;;;;;22.79;40.74;102232.03;4972765;28;46998;-74
2022/07/06 10:17:06;;;;;;;;;2.25;2.25;;;;;22.71;40.35;102208.88;4977879;28;46046;-73
2022/07/06 10:19:38;;;;;;;;;3.00;3.00;;;;;23.00;40.48;102238.03;4970597;28;45313;-73
2022/07/06 11:04:27;;;;;;;;;;;;;;;;;;;;;
2022/07/06 13:01:07;;;;;;;;;;;;;;;;;;;;;
2022/07/06 13:04:32;;;;;;;;;;;;;;;;;;;;;
2022/07/06 13:26:48;;;;;;;;;3.00;3.00;;;;;24.89;36.94;102071.94;4899611;26;45617;-76
2022/07/06 13:29:34;;;;;;;;;2.00;2.00;;;;;25.01;36.51;102083.84;5013858;28;45486;-74
2022/07/06 14:13:38;;;;;;;;;3.50;3.50;;;;;25.64;35.73;102052.78;5259824;22;46406;-69
2022/07/06 14:16:05;;;;;;;;;3.00;2.50;;;;;25.72;36.14;102043.97;4972515;28;48493;-71
2022/07/06 14:18:31;;;;;;;;;3.75;2.25;;;;;25.66;35.94;102048.06;4986243;28;45412;-73
2022/07/06 14:20:57;;;;;;;;;2.25;1.50;;;;;25.79;35.44;102055.31;4997900;28;45440;-73
2022/07/06 14:23:23;;;;;;;;;1.75;1.75;;;;;25.63;35.55;102015.47;4994773;28;45658;-73
2022/07/06 14:25:50;;;;;;;;;6.00;6.00;;;;;25.82;35.05;102047.75;4999800;28;46121;-72
2022/07/06 14:28:19;;;;;;;;;11.75;10.75;;;;;25.86;35.25;102048.38;4997819;28;45539;-73
2022/07/06 14:30:45;;;;;;;;;2.00;2.00;;;;;25.80;35.20;102027.84;4980483;28;45377;-73
2022/07/06 14:33:18;;;;;;;;;1.00;1.00;;;;;25.68;34.72;101998.72;5000694;28;45510;-74
2022/07/06 14:35:47;;;;;;;;;0.25;0.25;;;;;25.88;35.65;102036.34;4998843;28;48017;-72
2022/07/06 14:38:14;;;;;;;;;2.25;2.00;;;;;25.69;35.14;102001.34;4981772;28;45322;-73
2022/07/06 14:40:40;;;;;;;;;1.75;1.75;;;;;25.85;34.35;102028.38;4981881;28;45527;-72
2022/07/06 14:43:11;;;;;;;;;0.50;0.50;;;;;25.71;34.48;101998.50;4980707;28;45975;-72
2022/07/06 14:45:37;;;;;;;;;2.25;2.25;;;;;25.85;34.76;102033.84;4998404;28;45419;-72
2022/07/06 14:48:05;;;;;;;;;0.50;0.50;;;;;25.67;34.57;101988.75;4998939;28;45439;-72
2022/07/06 14:50:31;;;;;;;;;0.00;0.00;;;;;25.83;34.81;102011.22;4982097;28;45534;-72
2022/07/06 14:52:57;;;;;;;;;1.00;1.00;;;;;25.66;34.47;101976.06;4981990;28;45504;-72
2022/07/06 14:55:23;;;;;;;;;0.25;0.25;;;;;25.71;34.50;101973.88;4986306;28;45372;-71
2022/07/06 14:57:48;;;;;;;;;1.00;1.00;;;;;25.86;35.07;101991.81;4981421;28;45740;-71
2022/07/06 15:00:15;;;;;;;;;0.50;0.50;;;;;25.84;34.74;101984.72;4997822;28;45426;-71
2022/07/06 15:02:44;;;;;;;;;0.75;0.75;;;;;25.94;34.88;101984.88;4982411;28;45532;-73
2022/07/06 15:05:13;;;;;;;;;8.25;8.25;;;;;26.07;34.32;102002.09;4996616;28;45774;-73
2022/07/06 15:07:38;;;;;;;;;3.00;2.50;;;;;26.17;34.03;102016.81;4998888;28;45478;-73
2022/07/06 15:10:05;;;;;;;;;5.00;5.00;;;;;26.22;34.81;102002.75;4996534;28;45679;-73
2022/07/06 15:12:33;;;;;;;;;0.50;0.25;;;;;26.13;34.60;101978.84;4997510;28;45584;-74
2022/07/06 15:14:58;;;;;;;;;2.00;1.25;;;;;26.20;34.02;101997.41;4979317;28;47290;-74
2022/07/06 15:17:23;;;;;;;;;1.25;0.00;;;;;26.12;33.97;101982.59;4995599;28;45453;-73
2022/07/06 15:19:49;;;;;;;;;1.00;1.00;;;;;26.21;34.04;102001.91;4981010;28;45333;-74
2022/07/06 15:22:14;;;;;;;;;1.00;1.00;;;;;26.24;34.18;101993.47;4977611;28;45584;-74
2022/07/06 15:24:40;;;;;;;;;3.00;1.00;;;;;26.29;33.89;101997.69;4979092;28;47432;-74
2022/07/06 15:27:06;;;;;;;;;3.00;3.00;;;;;26.28;34.36;101983.13;4996555;28;45422;-73
2022/07/06 15:29:53;;;;;;;;;1.75;0.00;;;;;26.13;33.98;101946.00;4979207;28;45550;-72
2022/07/06 16:18:03;;;;;;;;;0.50;0.50;;;;;26.72;34.40;101943.09;5799045;23;46373;-72
2022/07/06 16:20:28;;;;;;;;;0.50;0.50;;;;;26.54;34.09;101908.97;4822979;29;45684;-73
2022/07/06 16:34:04;;;;;;;;;0.00;0.00;;;;;26.76;33.91;101936.38;5164427;23;45756;-71
2022/07/06 16:43:45;;;;;;;;;0.25;0.25;;;;;26.60;33.53;101905.75;4818903;29;45739;-71
2022/07/06 16:53:33;;;;;;;;;5.50;5.50;;;;;26.59;33.84;101891.16;4731393;29;45587;-71
2022/07/06 16:55:58;;;;;;;;;11.50;11.25;;;;;26.77;33.89;101909.84;4749345;29;45723;-71
2022/07/06 16:58:24;;;;;;;;;1.50;1.25;;;;;26.59;33.44;101901.25;4801323;29;46085;-71
2022/07/06 17:00:55;;;;;;;;;2.50;1.50;;;;;26.54;33.45;101898.00;4846569;29;45798;-71
2022/07/06 17:03:20;;;;;;;;;6.00;6.00;;;;;26.57;34.07;101895.03;4854552;29;45581;-71
2022/07/06 17:05:46;;;;;;;;;6.25;5.25;;;;;26.62;33.51;101906.47;4855072;29;47019;-71
2022/07/06 17:08:11;;;;;;;;;2.25;2.25;;;;;26.68;33.52;101911.47;4849948;29;47137;-71
2022/07/06 17:10:37;;;;;;;;;1.75;1.75;;;;;26.69;33.15;101928.78;4857364;29;45253;-72
2022/07/06 17:13:02;;;;;;;;;5.00;3.00;;;;;26.48;33.59;101902.13;4853643;29;45689;-72
2022/07/06 17:15:29;;;;;;;;;1.50;0.25;;;;;26.55;33.78;101899.78;4857492;29;45474;-70
2022/07/06 17:17:54;;;;;;;;;1.75;1.00;;;;;26.48;33.52;101891.19;4860649;29;46273;-71
2022/07/06 17:20:20;;;;;;;;;0.00;0.00;;;;;26.60;33.40;101914.81;4862564;29;45528;-70
2022/07/06 17:22:48;;;;;;;;;9.75;8.00;;;;;26.62;33.08;101921.03;4846402;29;45479;-70
2022/07/06 17:25:13;;;;;;;;;2.50;2.50;;;;;26.67;33.36;101934.38;4846881;29;45442;-70
2022/07/06 17:27:44;;;;;;;;;0.75;0.75;;;;;26.63;33.15;101932.91;4851817;29;45917;-69
2022/07/06 17:30:10;;;;;;;;;0.25;0.25;;;;;26.65;33.32;101935.50;4850569;29;45620;-69
2022/07/06 17:33:07;;;;;;;;;2.00;1.25;;;;;26.51;33.33;101906.47;4844655;29;45472;-71
2022/07/06 17:39:12;;;;;;;;;1.00;1.00;;;;;26.69;33.22;101937.00;4802918;29;46137;-71
2022/07/06 17:41:40;;;;;;;;;1.25;0.00;;;;;26.49;33.34;101903.88;4851331;29;48681;-71